sensor_id;sensor_type;location;lat;lon;timestamp;P1;durP1;ratioP1;P2;durP2;ratioP2
64297;SDS011;50639;53.270;7.956;2024-02-23T00:00:30;2.88;;;1.92;;
64297;SDS011;50639;53.270;7.956;2024-02-23T00:02:56;2.17;;;1.55;;
64297;SDS011;50639;53.270;7.956;2024-02-23T00:05:23;0.80;;;0.80;;
64297;SDS011;50639;53.270;7.956;2024-02-23T00:07:49;0.80;;;0.80;;
64297;SDS011;50639;53.270;7.956;2024-02-23T00:10:14;1.20;;;1.00;;
64297;SDS011;50639;53.270;7.956;2024-02-23T00:12:40;0.88;;;0.80;;
64297;SDS011;50639;53.270;7.956;2024-02-23T00:15:06;0.85;;;0.85;;
64297;SDS011;50639;53.270;7.956;2024-02-23T00:17:32;1.35;;;1.00;;
64297;SDS011;50639;53.270;7.956;2024-02-23T00:19:58;0.80;;;0.80;;
64297;SDS011;50639;53.270;7.956;2024-02-23T00:22:23;2.90;;;1.00;;
64297;SDS011;50639;53.270;7.956;2024-02-23T00:24:50;0.90;;;0.90;;
64297;SDS011;50639;53.270;7.956;2024-02-23T00:27:16;1.20;;;0.90;;
64297;SDS011;50639;53.270;7.956;2024-02-23T00:29:42;0.93;;;0.93;;
64297;SDS011;50639;53.270;7.956;2024-02-23T00:32:07;0.95;;;0.90;;
64297;SDS011;50639;53.270;7.956;2024-02-23T00:34:33;1.80;;;1.10;;
64297;SDS011;50639;53.270;7.956;2024-02-23T00:36:58;1.05;;;0.90;;
64297;SDS011;50639;53.270;7.956;2024-02-23T00:39:24;0.70;;;0.70;;
64297;SDS011;50639;53.270;7.956;2024-02-23T00:41:49;2.13;;;0.88;;
64297;SDS011;50639;53.270;7.956;2024-02-23T00:44:15;1.05;;;0.95;;
64297;SDS011;50639;53.270;7.956;2024-02-23T00:46:40;0.52;;;0.52;;
64297;SDS011;50639;53.270;7.956;2024-02-23T00:49:06;1.52;;;0.68;;
64297;SDS011;50639;53.270;7.956;2024-02-23T00:51:32;1.10;;;0.70;;
64297;SDS011;50639;53.270;7.956;2024-02-23T00:53:57;1.20;;;1.10;;
64297;SDS011;50639;53.270;7.956;2024-02-23T00:56:23;0.93;;;0.73;;
64297;SDS011;50639;53.270;7.956;2024-02-23T00:58:49;0.60;;;0.60;;
64297;SDS011;50639;53.270;7.956;2024-02-23T01:01:14;1.95;;;1.10;;
64297;SDS011;50639;53.270;7.956;2024-02-23T01:03:39;1.50;;;1.10;;
64297;SDS011;50639;53.270;7.956;2024-02-23T01:06:05;2.28;;;1.38;;
64297;SDS011;50639;53.270;7.956;2024-02-23T01:08:33;1.25;;;0.88;;
64297;SDS011;50639;53.270;7.956;2024-02-23T01:11:00;1.20;;;1.10;;
64297;SDS011;50639;53.270;7.956;2024-02-23T01:13:25;3.58;;;1.27;;
64297;SDS011;50639;53.270;7.956;2024-02-23T01:15:51;1.00;;;0.77;;
64297;SDS011;50639;53.270;7.956;2024-02-23T01:18:16;1.92;;;0.88;;
64297;SDS011;50639;53.270;7.956;2024-02-23T01:20:42;3.80;;;1.55;;
64297;SDS011;50639;53.270;7.956;2024-02-23T01:23:07;4.13;;;1.17;;
64297;SDS011;50639;53.270;7.956;2024-02-23T01:25:33;1.20;;;1.00;;
64297;SDS011;50639;53.270;7.956;2024-02-23T01:28:00;3.63;;;1.25;;
64297;SDS011;50639;53.270;7.956;2024-02-23T01:30:25;2.92;;;1.10;;
64297;SDS011;50639;53.270;7.956;2024-02-23T01:32:50;2.30;;;1.40;;
64297;SDS011;50639;53.270;7.956;2024-02-23T01:35:16;3.72;;;1.55;;
64297;SDS011;50639;53.270;7.956;2024-02-23T01:37:41;2.90;;;1.00;;
64297;SDS011;50639;53.270;7.956;2024-02-23T01:40:07;4.03;;;1.33;;
64297;SDS011;50639;53.270;7.956;2024-02-23T01:42:33;2.67;;;1.38;;
64297;SDS011;50639;53.270;7.956;2024-02-23T01:44:58;3.95;;;1.30;;
64297;SDS011;50639;53.270;7.956;2024-02-23T01:47:25;3.97;;;1.30;;
64297;SDS011;50639;53.270;7.956;2024-02-23T01:49:54;3.70;;;1.33;;
64297;SDS011;50639;53.270;7.956;2024-02-23T01:52:21;1.63;;;1.40;;
64297;SDS011;50639;53.270;7.956;2024-02-23T01:54:47;1.80;;;0.95;;
64297;SDS011;50639;53.270;7.956;2024-02-23T01:57:12;0.85;;;0.85;;
64297;SDS011;50639;53.270;7.956;2024-02-23T01:59:39;1.70;;;1.15;;
64297;SDS011;50639;53.270;7.956;2024-02-23T02:02:06;6.72;;;2.03;;
64297;SDS011;50639;53.270;7.956;2024-02-23T02:04:32;2.30;;;1.27;;
64297;SDS011;50639;53.270;7.956;2024-02-23T02:06:58;1.65;;;1.23;;
64297;SDS011;50639;53.270;7.956;2024-02-23T02:09:24;2.33;;;1.13;;
64297;SDS011;50639;53.270;7.956;2024-02-23T02:11:51;3.67;;;1.42;;
64297;SDS011;50639;53.270;7.956;2024-02-23T02:14:16;2.05;;;1.10;;
64297;SDS011;50639;53.270;7.956;2024-02-23T02:16:42;2.70;;;1.17;;
64297;SDS011;50639;53.270;7.956;2024-02-23T02:19:11;3.25;;;1.13;;
64297;SDS011;50639;53.270;7.956;2024-02-23T02:21:38;3.08;;;1.30;;
64297;SDS011;50639;53.270;7.956;2024-02-23T02:24:07;3.28;;;1.42;;
64297;SDS011;50639;53.270;7.956;2024-02-23T02:26:34;4.30;;;1.52;;
64297;SDS011;50639;53.270;7.956;2024-02-23T02:29:00;3.15;;;1.25;;
64297;SDS011;50639;53.270;7.956;2024-02-23T02:31:25;3.08;;;1.52;;
64297;SDS011;50639;53.270;7.956;2024-02-23T02:33:50;4.40;;;1.67;;
64297;SDS011;50639;53.270;7.956;2024-02-23T02:36:16;2.42;;;1.23;;
64297;SDS011;50639;53.270;7.956;2024-02-23T02:38:41;2.13;;;1.30;;
64297;SDS011;50639;53.270;7.956;2024-02-23T02:41:08;1.17;;;1.08;;
64297;SDS011;50639;53.270;7.956;2024-02-23T02:43:33;1.23;;;1.13;;
64297;SDS011;50639;53.270;7.956;2024-02-23T02:45:59;3.05;;;1.35;;
64297;SDS011;50639;53.270;7.956;2024-02-23T02:48:24;3.50;;;1.23;;
64297;SDS011;50639;53.270;7.956;2024-02-23T02:50:50;5.10;;;1.40;;
64297;SDS011;50639;53.270;7.956;2024-02-23T02:53:16;2.15;;;1.02;;
64297;SDS011;50639;53.270;7.956;2024-02-23T02:55:43;1.92;;;0.98;;
64297;SDS011;50639;53.270;7.956;2024-02-23T02:58:09;3.53;;;1.48;;
64297;SDS011;50639;53.270;7.956;2024-02-23T03:00:36;3.72;;;1.38;;
64297;SDS011;50639;53.270;7.956;2024-02-23T03:03:01;3.13;;;1.70;;
64297;SDS011;50639;53.270;7.956;2024-02-23T03:05:27;5.40;;;1.85;;
64297;SDS011;50639;53.270;7.956;2024-02-23T03:07:52;4.47;;;1.70;;
64297;SDS011;50639;53.270;7.956;2024-02-23T03:10:17;4.25;;;1.70;;
64297;SDS011;50639;53.270;7.956;2024-02-23T03:12:43;5.40;;;1.90;;
64297;SDS011;50639;53.270;7.956;2024-02-23T03:15:08;5.95;;;1.92;;
64297;SDS011;50639;53.270;7.956;2024-02-23T03:17:35;6.68;;;2.00;;
64297;SDS011;50639;53.270;7.956;2024-02-23T03:20:02;10.35;;;3.20;;
64297;SDS011;50639;53.270;7.956;2024-02-23T03:22:35;3.65;;;1.77;;
64297;SDS011;50639;53.270;7.956;2024-02-23T03:25:01;8.07;;;2.13;;
64297;SDS011;50639;53.270;7.956;2024-02-23T03:27:33;5.43;;;1.90;;
64297;SDS011;50639;53.270;7.956;2024-02-23T03:30:00;6.35;;;2.40;;
64297;SDS011;50639;53.270;7.956;2024-02-23T03:32:25;11.20;;;2.28;;
64297;SDS011;50639;53.270;7.956;2024-02-23T03:34:51;5.55;;;2.28;;
64297;SDS011;50639;53.270;7.956;2024-02-23T03:37:16;10.90;;;2.47;;
64297;SDS011;50639;53.270;7.956;2024-02-23T03:39:42;5.05;;;2.38;;
64297;SDS011;50639;53.270;7.956;2024-02-23T03:42:08;8.05;;;2.13;;
64297;SDS011;50639;53.270;7.956;2024-02-23T03:44:33;8.82;;;3.00;;
64297;SDS011;50639;53.270;7.956;2024-02-23T03:46:59;12.05;;;2.72;;
64297;SDS011;50639;53.270;7.956;2024-02-23T03:49:24;6.07;;;2.40;;
64297;SDS011;50639;53.270;7.956;2024-02-23T03:51:50;11.07;;;2.75;;
64297;SDS011;50639;53.270;7.956;2024-02-23T03:54:15;9.98;;;2.88;;
64297;SDS011;50639;53.270;7.956;2024-02-23T03:56:41;14.73;;;3.13;;
64297;SDS011;50639;53.270;7.956;2024-02-23T03:59:07;11.02;;;2.50;;
64297;SDS011;50639;53.270;7.956;2024-02-23T04:01:36;9.15;;;2.55;;
64297;SDS011;50639;53.270;7.956;2024-02-23T04:04:02;9.00;;;2.78;;
64297;SDS011;50639;53.270;7.956;2024-02-23T04:06:28;12.38;;;2.95;;
64297;SDS011;50639;53.270;7.956;2024-02-23T04:08:53;6.63;;;2.50;;
64297;SDS011;50639;53.270;7.956;2024-02-23T04:11:19;8.75;;;2.63;;
64297;SDS011;50639;53.270;7.956;2024-02-23T04:13:44;11.95;;;4.72;;
64297;SDS011;50639;53.270;7.956;2024-02-23T04:16:10;12.07;;;3.25;;
64297;SDS011;50639;53.270;7.956;2024-02-23T04:18:35;11.63;;;2.70;;
64297;SDS011;50639;53.270;7.956;2024-02-23T04:21:01;10.82;;;2.53;;
64297;SDS011;50639;53.270;7.956;2024-02-23T04:23:27;10.23;;;2.55;;
64297;SDS011;50639;53.270;7.956;2024-02-23T04:25:52;14.25;;;2.88;;
64297;SDS011;50639;53.270;7.956;2024-02-23T04:28:17;6.30;;;2.60;;
64297;SDS011;50639;53.270;7.956;2024-02-23T04:30:43;6.43;;;2.80;;
64297;SDS011;50639;53.270;7.956;2024-02-23T04:33:08;7.20;;;2.15;;
64297;SDS011;50639;53.270;7.956;2024-02-23T04:35:34;9.95;;;2.30;;
64297;SDS011;50639;53.270;7.956;2024-02-23T04:37:59;6.43;;;2.17;;
64297;SDS011;50639;53.270;7.956;2024-02-23T04:40:25;7.72;;;1.92;;
64297;SDS011;50639;53.270;7.956;2024-02-23T04:42:50;6.03;;;1.90;;
64297;SDS011;50639;53.270;7.956;2024-02-23T04:45:16;5.22;;;1.90;;
64297;SDS011;50639;53.270;7.956;2024-02-23T04:47:41;7.20;;;2.08;;
64297;SDS011;50639;53.270;7.956;2024-02-23T04:50:07;7.97;;;2.35;;
64297;SDS011;50639;53.270;7.956;2024-02-23T04:52:33;5.57;;;2.17;;
64297;SDS011;50639;53.270;7.956;2024-02-23T04:54:59;4.07;;;1.88;;
64297;SDS011;50639;53.270;7.956;2024-02-23T04:57:24;4.53;;;1.98;;
64297;SDS011;50639;53.270;7.956;2024-02-23T04:59:50;24.98;;;2.35;;
64297;SDS011;50639;53.270;7.956;2024-02-23T05:02:15;7.75;;;2.00;;
64297;SDS011;50639;53.270;7.956;2024-02-23T05:04:41;7.00;;;2.35;;
64297;SDS011;50639;53.270;7.956;2024-02-23T05:07:06;5.63;;;1.90;;
64297;SDS011;50639;53.270;7.956;2024-02-23T05:09:32;7.25;;;1.92;;
64297;SDS011;50639;53.270;7.956;2024-02-23T05:12:01;8.32;;;2.13;;
64297;SDS011;50639;53.270;7.956;2024-02-23T05:14:26;7.07;;;2.22;;
64297;SDS011;50639;53.270;7.956;2024-02-23T05:16:52;7.55;;;2.40;;
64297;SDS011;50639;53.270;7.956;2024-02-23T05:19:17;6.07;;;2.20;;
64297;SDS011;50639;53.270;7.956;2024-02-23T05:21:43;6.18;;;2.00;;
64297;SDS011;50639;53.270;7.956;2024-02-23T05:24:10;6.57;;;2.05;;
64297;SDS011;50639;53.270;7.956;2024-02-23T05:26:36;7.43;;;2.20;;
64297;SDS011;50639;53.270;7.956;2024-02-23T05:29:02;7.20;;;2.10;;
64297;SDS011;50639;53.270;7.956;2024-02-23T05:34:15;6.05;;;2.22;;
64297;SDS011;50639;53.270;7.956;2024-02-23T05:36:40;5.47;;;2.38;;
64297;SDS011;50639;53.270;7.956;2024-02-23T05:39:06;6.65;;;2.25;;
64297;SDS011;50639;53.270;7.956;2024-02-23T05:41:32;8.98;;;2.90;;
64297;SDS011;50639;53.270;7.956;2024-02-23T05:43:58;11.82;;;2.58;;
64297;SDS011;50639;53.270;7.956;2024-02-23T05:46:24;11.23;;;2.42;;
64297;SDS011;50639;53.270;7.956;2024-02-23T05:48:49;9.18;;;2.40;;
64297;SDS011;50639;53.270;7.956;2024-02-23T05:51:15;8.52;;;2.63;;
64297;SDS011;50639;53.270;7.956;2024-02-23T05:53:40;7.95;;;2.38;;
64297;SDS011;50639;53.270;7.956;2024-02-23T05:56:06;9.45;;;3.08;;
64297;SDS011;50639;53.270;7.956;2024-02-23T05:58:31;7.13;;;2.55;;
64297;SDS011;50639;53.270;7.956;2024-02-23T06:00:57;6.13;;;2.75;;
64297;SDS011;50639;53.270;7.956;2024-02-23T06:03:22;5.57;;;2.38;;
64297;SDS011;50639;53.270;7.956;2024-02-23T06:05:47;9.38;;;3.65;;
64297;SDS011;50639;53.270;7.956;2024-02-23T06:08:13;7.28;;;2.67;;
64297;SDS011;50639;53.270;7.956;2024-02-23T06:10:38;7.63;;;2.50;;
64297;SDS011;50639;53.270;7.956;2024-02-23T06:13:04;15.68;;;7.72;;
64297;SDS011;50639;53.270;7.956;2024-02-23T06:15:29;8.13;;;3.03;;
64297;SDS011;50639;53.270;7.956;2024-02-23T06:17:55;5.97;;;2.35;;
64297;SDS011;50639;53.270;7.956;2024-02-23T06:20:20;7.43;;;2.97;;
64297;SDS011;50639;53.270;7.956;2024-02-23T06:22:45;8.38;;;3.03;;
64297;SDS011;50639;53.270;7.956;2024-02-23T06:25:11;7.35;;;2.80;;
64297;SDS011;50639;53.270;7.956;2024-02-23T06:27:37;5.40;;;2.70;;
64297;SDS011;50639;53.270;7.956;2024-02-23T06:30:03;9.35;;;2.97;;
64297;SDS011;50639;53.270;7.956;2024-02-23T06:32:29;8.75;;;3.03;;
64297;SDS011;50639;53.270;7.956;2024-02-23T06:34:55;8.77;;;3.20;;
64297;SDS011;50639;53.270;7.956;2024-02-23T06:37:20;9.45;;;2.88;;
64297;SDS011;50639;53.270;7.956;2024-02-23T06:39:46;5.20;;;2.75;;
64297;SDS011;50639;53.270;7.956;2024-02-23T06:42:16;10.43;;;3.40;;
64297;SDS011;50639;53.270;7.956;2024-02-23T06:44:41;6.38;;;2.95;;
64297;SDS011;50639;53.270;7.956;2024-02-23T06:47:08;8.43;;;3.00;;
64297;SDS011;50639;53.270;7.956;2024-02-23T06:49:33;13.18;;;3.40;;
64297;SDS011;50639;53.270;7.956;2024-02-23T06:52:00;8.32;;;3.60;;
64297;SDS011;50639;53.270;7.956;2024-02-23T06:54:25;7.03;;;3.20;;
64297;SDS011;50639;53.270;7.956;2024-02-23T06:56:51;8.98;;;3.67;;
64297;SDS011;50639;53.270;7.956;2024-02-23T06:59:16;12.50;;;3.20;;
64297;SDS011;50639;53.270;7.956;2024-02-23T07:01:49;10.40;;;3.38;;
64297;SDS011;50639;53.270;7.956;2024-02-23T07:04:15;8.15;;;3.20;;
64297;SDS011;50639;53.270;7.956;2024-02-23T07:06:40;12.07;;;3.45;;
64297;SDS011;50639;53.270;7.956;2024-02-23T07:09:06;7.88;;;2.78;;
64297;SDS011;50639;53.270;7.956;2024-02-23T07:11:31;11.55;;;3.25;;
64297;SDS011;50639;53.270;7.956;2024-02-23T07:13:57;15.65;;;3.65;;
64297;SDS011;50639;53.270;7.956;2024-02-23T07:16:22;13.25;;;3.80;;
64297;SDS011;50639;53.270;7.956;2024-02-23T07:18:48;14.43;;;3.38;;
64297;SDS011;50639;53.270;7.956;2024-02-23T07:21:13;9.30;;;3.42;;
64297;SDS011;50639;53.270;7.956;2024-02-23T07:23:38;12.55;;;3.33;;
64297;SDS011;50639;53.270;7.956;2024-02-23T07:26:04;12.18;;;3.92;;
64297;SDS011;50639;53.270;7.956;2024-02-23T07:28:29;8.88;;;3.28;;
64297;SDS011;50639;53.270;7.956;2024-02-23T07:30:55;15.30;;;4.25;;
64297;SDS011;50639;53.270;7.956;2024-02-23T07:33:20;7.32;;;3.05;;
64297;SDS011;50639;53.270;7.956;2024-02-23T07:35:46;13.15;;;3.58;;
64297;SDS011;50639;53.270;7.956;2024-02-23T07:38:11;8.32;;;3.25;;
64297;SDS011;50639;53.270;7.956;2024-02-23T07:40:37;9.35;;;3.00;;
64297;SDS011;50639;53.270;7.956;2024-02-23T07:43:02;11.18;;;3.60;;
64297;SDS011;50639;53.270;7.956;2024-02-23T07:45:28;11.48;;;2.80;;
64297;SDS011;50639;53.270;7.956;2024-02-23T07:47:53;8.52;;;2.85;;
64297;SDS011;50639;53.270;7.956;2024-02-23T07:50:19;10.75;;;3.30;;
64297;SDS011;50639;53.270;7.956;2024-02-23T07:52:44;6.05;;;2.65;;
64297;SDS011;50639;53.270;7.956;2024-02-23T07:55:09;8.95;;;3.15;;
64297;SDS011;50639;53.270;7.956;2024-02-23T07:57:35;10.48;;;2.75;;
64297;SDS011;50639;53.270;7.956;2024-02-23T08:00:01;10.05;;;2.88;;
64297;SDS011;50639;53.270;7.956;2024-02-23T08:02:37;10.35;;;3.20;;
64297;SDS011;50639;53.270;7.956;2024-02-23T08:05:03;10.43;;;2.88;;
64297;SDS011;50639;53.270;7.956;2024-02-23T08:07:29;11.82;;;2.92;;
64297;SDS011;50639;53.270;7.956;2024-02-23T08:09:56;16.10;;;3.42;;
64297;SDS011;50639;53.270;7.956;2024-02-23T08:12:22;12.30;;;3.13;;
64297;SDS011;50639;53.270;7.956;2024-02-23T08:14:47;10.88;;;2.90;;
64297;SDS011;50639;53.270;7.956;2024-02-23T08:17:14;12.68;;;3.17;;
64297;SDS011;50639;53.270;7.956;2024-02-23T08:19:40;13.77;;;3.13;;
64297;SDS011;50639;53.270;7.956;2024-02-23T08:22:05;10.27;;;3.20;;
64297;SDS011;50639;53.270;7.956;2024-02-23T08:24:31;8.40;;;2.78;;
64297;SDS011;50639;53.270;7.956;2024-02-23T08:26:56;9.45;;;3.00;;
64297;SDS011;50639;53.270;7.956;2024-02-23T08:29:22;14.65;;;3.10;;
64297;SDS011;50639;53.270;7.956;2024-02-23T08:31:47;6.43;;;2.55;;
64297;SDS011;50639;53.270;7.956;2024-02-23T08:34:13;9.30;;;2.88;;
64297;SDS011;50639;53.270;7.956;2024-02-23T08:36:39;10.20;;;2.83;;
64297;SDS011;50639;53.270;7.956;2024-02-23T08:39:04;11.20;;;3.25;;
64297;SDS011;50639;53.270;7.956;2024-02-23T08:41:30;9.73;;;3.00;;
64297;SDS011;50639;53.270;7.956;2024-02-23T08:43:55;12.35;;;3.05;;
64297;SDS011;50639;53.270;7.956;2024-02-23T08:46:21;8.35;;;2.47;;
64297;SDS011;50639;53.270;7.956;2024-02-23T08:48:46;9.52;;;2.63;;
64297;SDS011;50639;53.270;7.956;2024-02-23T08:51:12;8.85;;;2.83;;
64297;SDS011;50639;53.270;7.956;2024-02-23T08:53:38;14.07;;;3.10;;
64297;SDS011;50639;53.270;7.956;2024-02-23T08:56:04;12.77;;;3.00;;
64297;SDS011;50639;53.270;7.956;2024-02-23T08:58:31;10.82;;;2.40;;
64297;SDS011;50639;53.270;7.956;2024-02-23T09:00:57;11.80;;;3.45;;
64297;SDS011;50639;53.270;7.956;2024-02-23T09:03:22;6.15;;;2.25;;
64297;SDS011;50639;53.270;7.956;2024-02-23T09:05:48;14.70;;;2.80;;
64297;SDS011;50639;53.270;7.956;2024-02-23T09:08:13;11.15;;;2.50;;
64297;SDS011;50639;53.270;7.956;2024-02-23T09:10:39;6.65;;;2.13;;
64297;SDS011;50639;53.270;7.956;2024-02-23T09:13:04;8.32;;;2.33;;
64297;SDS011;50639;53.270;7.956;2024-02-23T09:15:30;8.77;;;2.40;;
64297;SDS011;50639;53.270;7.956;2024-02-23T09:17:56;7.05;;;2.35;;
64297;SDS011;50639;53.270;7.956;2024-02-23T09:20:22;8.73;;;2.53;;
64297;SDS011;50639;53.270;7.956;2024-02-23T09:22:48;7.18;;;2.30;;
64297;SDS011;50639;53.270;7.956;2024-02-23T09:25:14;8.88;;;2.58;;
64297;SDS011;50639;53.270;7.956;2024-02-23T09:27:39;7.22;;;2.63;;
64297;SDS011;50639;53.270;7.956;2024-02-23T09:30:17;9.15;;;2.50;;
64297;SDS011;50639;53.270;7.956;2024-02-23T09:32:43;10.43;;;2.53;;
64297;SDS011;50639;53.270;7.956;2024-02-23T09:35:09;11.00;;;2.70;;
64297;SDS011;50639;53.270;7.956;2024-02-23T09:37:35;9.63;;;2.25;;
64297;SDS011;50639;53.270;7.956;2024-02-23T09:40:00;7.10;;;2.58;;
64297;SDS011;50639;53.270;7.956;2024-02-23T09:42:26;7.00;;;2.15;;
64297;SDS011;50639;53.270;7.956;2024-02-23T09:44:59;8.88;;;2.30;;
64297;SDS011;50639;53.270;7.956;2024-02-23T09:47:28;5.97;;;1.85;;
64297;SDS011;50639;53.270;7.956;2024-02-23T09:49:54;6.68;;;2.13;;
64297;SDS011;50639;53.270;7.956;2024-02-23T09:52:20;7.50;;;2.70;;
64297;SDS011;50639;53.270;7.956;2024-02-23T09:54:46;6.40;;;2.30;;
64297;SDS011;50639;53.270;7.956;2024-02-23T09:57:12;7.38;;;2.15;;
64297;SDS011;50639;53.270;7.956;2024-02-23T09:59:39;8.25;;;2.60;;
64297;SDS011;50639;53.270;7.956;2024-02-23T10:02:07;8.65;;;2.70;;
64297;SDS011;50639;53.270;7.956;2024-02-23T10:04:39;7.13;;;2.45;;
64297;SDS011;50639;53.270;7.956;2024-02-23T10:07:06;8.68;;;2.63;;
64297;SDS011;50639;53.270;7.956;2024-02-23T10:09:32;6.85;;;2.05;;
64297;SDS011;50639;53.270;7.956;2024-02-23T10:11:57;9.07;;;2.50;;
64297;SDS011;50639;53.270;7.956;2024-02-23T10:14:23;7.93;;;2.45;;
64297;SDS011;50639;53.270;7.956;2024-02-23T10:16:48;6.38;;;2.28;;
64297;SDS011;50639;53.270;7.956;2024-02-23T10:19:19;7.40;;;2.40;;
64297;SDS011;50639;53.270;7.956;2024-02-23T10:21:45;6.55;;;2.33;;
64297;SDS011;50639;53.270;7.956;2024-02-23T10:24:11;5.35;;;2.10;;
64297;SDS011;50639;53.270;7.956;2024-02-23T10:26:36;6.10;;;2.30;;
64297;SDS011;50639;53.270;7.956;2024-02-23T10:29:01;5.18;;;1.92;;
64297;SDS011;50639;53.270;7.956;2024-02-23T10:31:28;7.05;;;3.10;;
64297;SDS011;50639;53.270;7.956;2024-02-23T10:33:59;6.78;;;2.60;;
64297;SDS011;50639;53.270;7.956;2024-02-23T10:36:25;4.90;;;2.35;;
64297;SDS011;50639;53.270;7.956;2024-02-23T10:38:56;7.93;;;2.28;;
64297;SDS011;50639;53.270;7.956;2024-02-23T10:41:28;8.18;;;3.00;;
64297;SDS011;50639;53.270;7.956;2024-02-23T10:43:58;7.20;;;2.55;;
64297;SDS011;50639;53.270;7.956;2024-02-23T10:46:25;6.95;;;2.28;;
64297;SDS011;50639;53.270;7.956;2024-02-23T10:48:51;6.13;;;2.28;;
64297;SDS011;50639;53.270;7.956;2024-02-23T10:51:19;7.15;;;2.63;;
64297;SDS011;50639;53.270;7.956;2024-02-23T10:53:45;10.63;;;2.55;;
64297;SDS011;50639;53.270;7.956;2024-02-23T10:56:11;6.73;;;2.37;;
64297;SDS011;50639;53.270;7.956;2024-02-23T10:58:37;8.45;;;3.10;;
64297;SDS011;50639;53.270;7.956;2024-02-23T11:01:03;6.30;;;2.42;;
64297;SDS011;50639;53.270;7.956;2024-02-23T11:03:32;6.75;;;2.17;;
64297;SDS011;50639;53.270;7.956;2024-02-23T11:06:00;5.65;;;2.10;;
64297;SDS011;50639;53.270;7.956;2024-02-23T11:08:29;4.88;;;2.30;;
64297;SDS011;50639;53.270;7.956;2024-02-23T11:10:55;7.28;;;2.70;;
64297;SDS011;50639;53.270;7.956;2024-02-23T11:13:30;5.43;;;2.17;;
64297;SDS011;50639;53.270;7.956;2024-02-23T11:16:03;9.35;;;2.42;;
64297;SDS011;50639;53.270;7.956;2024-02-23T11:18:29;7.10;;;2.17;;
64297;SDS011;50639;53.270;7.956;2024-02-23T11:21:00;10.15;;;2.20;;
64297;SDS011;50639;53.270;7.956;2024-02-23T11:23:38;8.50;;;3.50;;
64297;SDS011;50639;53.270;7.956;2024-02-23T11:26:05;7.95;;;2.70;;
64297;SDS011;50639;53.270;7.956;2024-02-23T11:28:41;8.10;;;2.33;;
64297;SDS011;50639;53.270;7.956;2024-02-23T11:31:14;5.50;;;2.28;;
64297;SDS011;50639;53.270;7.956;2024-02-23T11:33:50;6.73;;;2.50;;
64297;SDS011;50639;53.270;7.956;2024-02-23T11:38:52;7.90;;;2.63;;
64297;SDS011;50639;53.270;7.956;2024-02-23T11:41:18;5.55;;;2.10;;
64297;SDS011;50639;53.270;7.956;2024-02-23T11:46:12;5.70;;;2.40;;
64297;SDS011;50639;53.270;7.956;2024-02-23T11:48:37;6.28;;;1.90;;
64297;SDS011;50639;53.270;7.956;2024-02-23T11:51:03;7.72;;;2.38;;
64297;SDS011;50639;53.270;7.956;2024-02-23T11:53:28;6.40;;;2.20;;
64297;SDS011;50639;53.270;7.956;2024-02-23T11:55:54;6.55;;;2.63;;
64297;SDS011;50639;53.270;7.956;2024-02-23T11:58:20;8.70;;;2.85;;
64297;SDS011;50639;53.270;7.956;2024-02-23T12:00:45;7.68;;;2.40;;
64297;SDS011;50639;53.270;7.956;2024-02-23T12:03:11;8.02;;;2.72;;
64297;SDS011;50639;53.270;7.956;2024-02-23T12:05:36;8.48;;;2.35;;
64297;SDS011;50639;53.270;7.956;2024-02-23T12:08:02;6.07;;;2.10;;
64297;SDS011;50639;53.270;7.956;2024-02-23T12:10:28;8.32;;;2.90;;
64297;SDS011;50639;53.270;7.956;2024-02-23T12:12:54;9.45;;;2.35;;
64297;SDS011;50639;53.270;7.956;2024-02-23T12:15:20;10.90;;;2.53;;
64297;SDS011;50639;53.270;7.956;2024-02-23T12:17:47;6.13;;;2.60;;
64297;SDS011;50639;53.270;7.956;2024-02-23T12:20:13;10.40;;;3.15;;
64297;SDS011;50639;53.270;7.956;2024-02-23T12:22:40;7.03;;;2.78;;
64297;SDS011;50639;53.270;7.956;2024-02-23T12:25:06;9.57;;;2.63;;
64297;SDS011;50639;53.270;7.956;2024-02-23T12:27:31;5.78;;;2.47;;
64297;SDS011;50639;53.270;7.956;2024-02-23T12:29:57;4.95;;;2.28;;
64297;SDS011;50639;53.270;7.956;2024-02-23T12:32:23;8.15;;;2.20;;
64297;SDS011;50639;53.270;7.956;2024-02-23T12:34:48;8.02;;;2.30;;
64297;SDS011;50639;53.270;7.956;2024-02-23T12:37:17;6.15;;;1.90;;
64297;SDS011;50639;53.270;7.956;2024-02-23T12:39:43;5.78;;;2.20;;
64297;SDS011;50639;53.270;7.956;2024-02-23T12:42:09;7.43;;;2.25;;
64297;SDS011;50639;53.270;7.956;2024-02-23T12:44:35;7.28;;;2.50;;
64297;SDS011;50639;53.270;7.956;2024-02-23T12:47:00;7.35;;;2.10;;
64297;SDS011;50639;53.270;7.956;2024-02-23T12:49:26;7.05;;;2.13;;
64297;SDS011;50639;53.270;7.956;2024-02-23T12:51:51;7.72;;;2.47;;
64297;SDS011;50639;53.270;7.956;2024-02-23T12:54:17;6.15;;;2.10;;
64297;SDS011;50639;53.270;7.956;2024-02-23T12:56:42;5.68;;;2.20;;
64297;SDS011;50639;53.270;7.956;2024-02-23T12:59:08;5.40;;;1.90;;
64297;SDS011;50639;53.270;7.956;2024-02-23T13:01:34;4.32;;;2.22;;
64297;SDS011;50639;53.270;7.956;2024-02-23T13:04:02;8.90;;;2.42;;
64297;SDS011;50639;53.270;7.956;2024-02-23T13:06:34;5.05;;;2.15;;
64297;SDS011;50639;53.270;7.956;2024-02-23T13:09:03;6.10;;;2.13;;
64297;SDS011;50639;53.270;7.956;2024-02-23T13:11:29;6.53;;;2.28;;
64297;SDS011;50639;53.270;7.956;2024-02-23T13:13:55;6.65;;;2.33;;
64297;SDS011;50639;53.270;7.956;2024-02-23T13:16:21;5.63;;;2.40;;
64297;SDS011;50639;53.270;7.956;2024-02-23T13:18:46;7.88;;;2.65;;
64297;SDS011;50639;53.270;7.956;2024-02-23T13:21:12;7.07;;;1.83;;
64297;SDS011;50639;53.270;7.956;2024-02-23T13:23:38;4.10;;;2.03;;
64297;SDS011;50639;53.270;7.956;2024-02-23T13:26:04;7.82;;;2.40;;
64297;SDS011;50639;53.270;7.956;2024-02-23T13:28:30;6.07;;;2.30;;
64297;SDS011;50639;53.270;7.956;2024-02-23T13:30:55;7.30;;;2.58;;
64297;SDS011;50639;53.270;7.956;2024-02-23T13:33:21;4.07;;;1.98;;
64297;SDS011;50639;53.270;7.956;2024-02-23T13:35:47;4.65;;;2.05;;
64297;SDS011;50639;53.270;7.956;2024-02-23T13:38:13;6.22;;;2.20;;
64297;SDS011;50639;53.270;7.956;2024-02-23T13:40:38;6.43;;;1.92;;
64297;SDS011;50639;53.270;7.956;2024-02-23T13:43:04;3.10;;;1.83;;
64297;SDS011;50639;53.270;7.956;2024-02-23T13:45:29;5.22;;;1.98;;
64297;SDS011;50639;53.270;7.956;2024-02-23T13:47:56;3.90;;;2.05;;
64297;SDS011;50639;53.270;7.956;2024-02-23T13:50:23;5.22;;;1.85;;
64297;SDS011;50639;53.270;7.956;2024-02-23T13:52:48;7.13;;;1.85;;
64297;SDS011;50639;53.270;7.956;2024-02-23T13:55:14;4.53;;;2.13;;
64297;SDS011;50639;53.270;7.956;2024-02-23T13:57:39;4.10;;;1.92;;
64297;SDS011;50639;53.270;7.956;2024-02-23T14:00:05;2.53;;;1.80;;
64297;SDS011;50639;53.270;7.956;2024-02-23T14:02:38;3.45;;;1.80;;
64297;SDS011;50639;53.270;7.956;2024-02-23T14:05:05;6.03;;;2.15;;
64297;SDS011;50639;53.270;7.956;2024-02-23T14:07:32;6.87;;;2.47;;
64297;SDS011;50639;53.270;7.956;2024-02-23T14:09:58;7.43;;;2.10;;
64297;SDS011;50639;53.270;7.956;2024-02-23T14:12:24;7.30;;;2.15;;
64297;SDS011;50639;53.270;7.956;2024-02-23T14:14:49;9.77;;;2.67;;
64297;SDS011;50639;53.270;7.956;2024-02-23T14:17:15;5.05;;;1.95;;
64297;SDS011;50639;53.270;7.956;2024-02-23T14:19:40;5.68;;;2.00;;
64297;SDS011;50639;53.270;7.956;2024-02-23T14:22:06;7.25;;;2.08;;
64297;SDS011;50639;53.270;7.956;2024-02-23T14:24:31;8.10;;;2.45;;
64297;SDS011;50639;53.270;7.956;2024-02-23T14:26:57;8.57;;;2.15;;
64297;SDS011;50639;53.270;7.956;2024-02-23T14:29:23;5.43;;;2.03;;
64297;SDS011;50639;53.270;7.956;2024-02-23T14:31:48;6.72;;;2.35;;
64297;SDS011;50639;53.270;7.956;2024-02-23T14:34:14;5.15;;;2.22;;
64297;SDS011;50639;53.270;7.956;2024-02-23T14:36:39;5.80;;;2.08;;
64297;SDS011;50639;53.270;7.956;2024-02-23T14:39:04;7.75;;;2.28;;
64297;SDS011;50639;53.270;7.956;2024-02-23T14:41:30;4.57;;;2.17;;
64297;SDS011;50639;53.270;7.956;2024-02-23T14:43:56;5.28;;;2.17;;
64297;SDS011;50639;53.270;7.956;2024-02-23T14:46:21;3.90;;;1.88;;